createdAt,value
2022-11-02T00:00:30.296Z,13.70
2022-11-02T00:02:58.347Z,13.53
2022-11-02T00:05:27.849Z,12.60
2022-11-02T00:07:56.783Z,14.20
2022-11-02T00:10:25.630Z,14.33
2022-11-02T00:12:54.024Z,13.60
2022-11-02T00:15:23.227Z,14.40
2022-11-02T00:17:53.811Z,13.27
2022-11-02T00:20:22.197Z,14.53
2022-11-02T00:22:54.758Z,13.33
2022-11-02T00:25:24.819Z,15.07
2022-11-02T00:27:53.043Z,13.13
2022-11-02T00:30:21.243Z,12.73
2022-11-02T00:32:49.179Z,13.70
2022-11-02T00:35:17.117Z,12.93
2022-11-02T00:37:44.939Z,14.13
2022-11-02T00:40:14.480Z,14.17
2022-11-02T00:42:42.350Z,16.10
2022-11-02T00:45:10.867Z,14.70
2022-11-02T00:47:38.966Z,15.97
2022-11-02T00:50:07.768Z,16.27
2022-11-02T00:52:39.872Z,16.20
2022-11-02T00:55:10.992Z,14.27
2022-11-02T00:57:44.222Z,12.60
2022-11-02T01:00:13.006Z,14.70
2022-11-02T01:02:40.968Z,12.83
2022-11-02T01:05:11.613Z,11.63
2022-11-02T01:07:40.294Z,11.63
2022-11-02T01:10:10.116Z,12.13
2022-11-02T01:12:38.639Z,12.20
2022-11-02T01:15:10.350Z,12.47
2022-11-02T01:17:39.200Z,12.53
2022-11-02T01:20:08.122Z,13.87
2022-11-02T01:22:35.988Z,12.63
2022-11-02T01:25:04.044Z,13.80
2022-11-02T01:27:32.032Z,13.27
2022-11-02T01:29:59.881Z,12.57
2022-11-02T01:32:31.483Z,12.00
2022-11-02T01:34:59.358Z,12.80
2022-11-02T01:37:27.178Z,14.50
2022-11-02T01:39:54.978Z,13.20
2022-11-02T01:42:24.772Z,14.20
2022-11-02T01:44:52.878Z,14.20
2022-11-02T01:47:25.073Z,15.30
2022-11-02T01:49:59.065Z,16.40
2022-11-02T01:52:31.810Z,16.83
2022-11-02T01:55:04.008Z,11.40
2022-11-02T01:57:34.552Z,15.40
2022-11-02T02:00:07.127Z,16.37
2022-11-02T02:02:46.380Z,16.63
2022-11-02T02:05:17.609Z,15.93
2022-11-02T02:07:46.850Z,15.27
2022-11-02T02:10:15.522Z,16.40
2022-11-02T02:12:44.743Z,15.37
2022-11-02T02:15:16.715Z,15.70
2022-11-02T02:17:50.692Z,16.37
2022-11-02T02:20:32.905Z,14.80
2022-11-02T02:23:27.854Z,16.50
2022-11-02T02:26:22.291Z,15.03
2022-11-02T02:28:54.978Z,14.63
2022-11-02T02:31:29.900Z,14.40
2022-11-02T02:34:05.417Z,14.00
2022-11-02T02:36:38.741Z,16.00
2022-11-02T02:39:11.990Z,14.90
2022-11-02T02:41:41.943Z,15.53
2022-11-02T02:44:14.830Z,15.53
2022-11-02T02:46:49.046Z,14.23
2022-11-02T02:49:23.512Z,15.37
2022-11-02T02:51:52.712Z,16.30
2022-11-02T02:54:25.299Z,16.13
2022-11-02T02:56:57.972Z,16.63
2022-11-02T02:59:30.808Z,16.50
2022-11-02T03:02:00.862Z,16.50
2022-11-02T03:04:28.760Z,15.23
2022-11-02T03:06:59.518Z,14.90
2022-11-02T03:09:32.982Z,15.77
2022-11-02T03:12:16.319Z,16.17
2022-11-02T03:14:58.261Z,14.60
2022-11-02T03:17:34.126Z,14.97
2022-11-02T03:20:12.558Z,15.00
2022-11-02T03:22:50.761Z,14.57
2022-11-02T03:25:23.521Z,14.20
2022-11-02T03:27:56.508Z,14.47
2022-11-02T03:30:29.076Z,14.40
2022-11-02T03:33:06.279Z,15.07
2022-11-02T03:35:42.132Z,15.70
2022-11-02T03:38:15.666Z,15.00
2022-11-02T03:40:46.886Z,15.30
2022-11-02T03:43:16.475Z,16.83
2022-11-02T03:45:49.659Z,18.47
2022-11-02T03:48:20.262Z,17.43
2022-11-02T03:50:51.940Z,15.80
2022-11-02T03:53:27.918Z,18.27
2022-11-02T03:56:03.611Z,19.33
2022-11-02T03:58:31.583Z,19.27
2022-11-02T04:01:03.758Z,19.37
2022-11-02T04:03:34.870Z,18.90
2022-11-02T04:06:02.803Z,19.80
2022-11-02T04:08:37.543Z,16.37
2022-11-02T04:11:26.488Z,15.60
2022-11-02T04:14:18.436Z,14.27
2022-11-02T04:16:48.272Z,14.90
2022-11-02T04:19:28.106Z,14.50
2022-11-02T04:22:18.036Z,13.50
2022-11-02T04:25:07.089Z,14.70
2022-11-02T04:27:35.967Z,13.70
2022-11-02T04:30:05.558Z,14.90
2022-11-02T04:32:57.507Z,14.90
2022-11-02T04:35:27.642Z,16.90
2022-11-02T04:38:13.262Z,16.70
2022-11-02T04:40:41.735Z,15.43
2022-11-02T04:43:10.289Z,14.97
2022-11-02T04:45:38.279Z,15.20
2022-11-02T04:48:09.383Z,14.50
2022-11-02T04:50:37.846Z,16.30
2022-11-02T04:53:08.187Z,15.03
2022-11-02T04:55:38.612Z,15.90
2022-11-02T04:58:06.850Z,15.10
2022-11-02T05:00:34.889Z,16.93
2022-11-02T05:03:05.701Z,15.67
2022-11-02T05:05:37.406Z,15.40
2022-11-02T05:08:06.509Z,15.10
2022-11-02T05:10:35.359Z,16.03
2022-11-02T05:13:03.245Z,15.13
2022-11-02T05:15:34.804Z,16.30
2022-11-02T05:18:07.149Z,14.80
2022-11-02T05:20:37.851Z,17.37
2022-11-02T05:23:06.735Z,14.90
2022-11-02T05:25:35.789Z,15.10
2022-11-02T05:28:03.587Z,14.40
2022-11-02T05:30:31.418Z,14.40
2022-11-02T05:32:59.365Z,15.30
2022-11-02T05:35:28.409Z,17.70
2022-11-02T05:37:57.614Z,33.40
2022-11-02T05:40:25.626Z,27.10
2022-11-02T05:43:00.188Z,36.90
2022-11-02T05:45:29.170Z,23.87
2022-11-02T05:47:57.064Z,17.93
2022-11-02T05:50:24.872Z,16.80
2022-11-02T05:52:53.941Z,17.43
2022-11-02T05:55:23.151Z,15.37
2022-11-02T05:57:54.332Z,14.83
2022-11-02T06:00:22.962Z,15.23
2022-11-02T06:02:56.289Z,14.30
2022-11-02T06:05:24.253Z,15.10
2022-11-02T06:07:52.728Z,15.33
2022-11-02T06:10:20.614Z,15.20
2022-11-02T06:12:55.640Z,15.50
2022-11-02T06:15:23.723Z,14.77
2022-11-02T06:17:52.602Z,15.93
2022-11-02T06:20:20.923Z,16.27
2022-11-02T06:22:49.193Z,17.00
2022-11-02T06:25:17.947Z,19.57
2022-11-02T06:27:55.039Z,16.73
2022-11-02T06:30:25.143Z,15.90
2022-11-02T06:32:54.494Z,16.50
2022-11-02T06:35:23.748Z,15.13
2022-11-02T06:37:51.751Z,17.90
2022-11-02T06:40:21.454Z,15.90
2022-11-02T06:43:15.320Z,15.87
2022-11-02T06:45:44.753Z,16.50
2022-11-02T06:48:12.522Z,14.50
2022-11-02T06:50:40.343Z,30.93
2022-11-02T06:53:08.496Z,47.90
2022-11-02T06:55:36.428Z,33.40
2022-11-02T06:58:05.631Z,16.97
2022-11-02T07:00:33.532Z,15.60
2022-11-02T07:03:02.546Z,13.70
2022-11-02T07:05:30.911Z,14.57
2022-11-02T07:07:58.849Z,14.80
2022-11-02T07:10:27.516Z,13.40
2022-11-02T07:12:56.560Z,13.77
2022-11-02T07:15:27.479Z,14.37
2022-11-02T07:17:55.561Z,14.13
2022-11-02T07:20:23.462Z,13.90
2022-11-02T07:22:55.404Z,13.13
2022-11-02T07:25:24.105Z,14.60
2022-11-02T07:27:52.118Z,13.77
2022-11-02T07:30:19.907Z,14.67
2022-11-02T07:32:49.525Z,15.20
2022-11-02T07:35:17.813Z,14.10
2022-11-02T07:37:45.710Z,14.00
2022-11-02T07:40:14.991Z,13.90
2022-11-02T07:42:46.679Z,14.23
2022-11-02T07:45:17.133Z,14.30
2022-11-02T07:47:45.296Z,13.93
2022-11-02T07:50:16.836Z,15.00
2022-11-02T07:52:46.016Z,15.10
2022-11-02T07:55:14.719Z,15.10
2022-11-02T07:57:43.661Z,15.60
2022-11-02T08:00:12.677Z,17.40
2022-11-02T08:02:40.545Z,18.13
2022-11-02T08:05:09.236Z,16.80
2022-11-02T08:07:38.421Z,17.20
2022-11-02T08:10:07.162Z,16.40
2022-11-02T08:12:37.532Z,17.07
2022-11-02T08:15:07.673Z,16.13
2022-11-02T08:17:36.176Z,15.10
2022-11-02T08:20:04.306Z,15.50
2022-11-02T08:22:32.129Z,15.33
2022-11-02T08:25:01.320Z,15.70
2022-11-02T08:27:29.276Z,14.70
2022-11-02T08:29:57.144Z,13.73
2022-11-02T08:32:25.541Z,15.33
2022-11-02T08:34:53.306Z,14.00
2022-11-02T08:37:21.136Z,15.77
2022-11-02T08:39:48.937Z,14.10
2022-11-02T08:42:18.330Z,16.77
2022-11-02T08:44:46.117Z,17.50
2022-11-02T08:47:15.079Z,17.17
2022-11-02T08:49:43.010Z,14.67
2022-11-02T08:52:10.806Z,14.63
2022-11-02T08:54:38.610Z,14.17
2022-11-02T08:57:06.424Z,15.60
2022-11-02T08:59:35.554Z,15.30
2022-11-02T09:02:03.443Z,13.70
2022-11-02T09:04:31.427Z,13.53
2022-11-02T09:06:59.277Z,15.57
2022-11-02T09:09:27.152Z,15.10
2022-11-02T09:11:54.961Z,15.40
2022-11-02T09:14:22.797Z,14.57
2022-11-02T09:16:51.990Z,15.30
2022-11-02T09:19:19.777Z,15.13
2022-11-02T09:21:49.726Z,15.47
2022-11-02T09:24:17.535Z,14.90
2022-11-02T09:26:45.371Z,17.10
2022-11-02T09:29:13.225Z,16.67
2022-11-02T09:31:41.097Z,16.13
2022-11-02T09:34:10.470Z,16.00
2022-11-02T09:36:38.323Z,17.10
2022-11-02T09:39:06.147Z,15.90
2022-11-02T09:41:38.366Z,15.80
2022-11-02T09:44:12.203Z,15.10
2022-11-02T09:46:42.783Z,15.73
2022-11-02T09:49:16.376Z,15.33
2022-11-02T09:51:47.651Z,14.30
2022-11-02T09:54:19.405Z,16.33
2022-11-02T09:56:48.338Z,16.03
2022-11-02T09:59:17.688Z,16.10
2022-11-02T10:01:55.585Z,15.27
2022-11-02T10:04:58.249Z,15.20
2022-11-02T10:07:39.395Z,14.97
2022-11-02T10:10:14.691Z,15.30
2022-11-02T10:12:52.346Z,15.27
2022-11-02T10:15:23.587Z,14.13
2022-11-02T10:17:56.882Z,15.60
2022-11-02T10:20:30.994Z,14.17
2022-11-02T10:23:04.305Z,14.77
2022-11-02T10:25:32.302Z,14.17
2022-11-02T10:28:06.042Z,15.40
2022-11-02T10:30:33.867Z,16.10
2022-11-02T10:33:01.792Z,14.30
2022-11-02T10:36:04.376Z,14.20
2022-11-02T10:38:40.676Z,13.10
2022-11-02T10:41:27.892Z,13.00
2022-11-02T10:44:10.980Z,13.43
2022-11-02T10:47:04.254Z,14.43
2022-11-02T10:49:57.467Z,13.33
2022-11-02T10:52:34.263Z,15.40
2022-11-02T10:55:02.139Z,14.93
2022-11-02T10:57:31.175Z,15.10
2022-11-02T11:00:25.247Z,30.50
2022-11-02T11:03:11.041Z,22.07
2022-11-02T11:05:55.818Z,13.83
2022-11-02T11:08:36.693Z,14.50
2022-11-02T11:11:12.511Z,13.57
2022-11-02T11:16:36.536Z,12.17
2022-11-02T11:21:54.534Z,13.13
2022-11-02T11:24:29.516Z,12.33
2022-11-02T11:27:06.455Z,12.10
2022-11-02T11:29:35.750Z,11.00
2022-11-02T11:32:04.410Z,11.50
2022-11-02T11:34:34.516Z,10.20
2022-11-02T11:37:07.094Z,12.20
2022-11-02T11:39:37.340Z,12.50
2022-11-02T11:42:06.257Z,12.13
2022-11-02T11:44:35.430Z,10.30
2022-11-02T11:47:04.467Z,10.97
2022-11-02T11:50:02.990Z,10.90
2022-11-02T11:52:31.585Z,10.47
2022-11-02T11:55:02.506Z,12.20
2022-11-02T11:57:32.982Z,11.03
2022-11-02T12:00:04.833Z,11.90
2022-11-02T12:02:40.932Z,12.77
2022-11-02T12:05:15.468Z,7.17
2022-11-02T12:08:18.259Z,6.47
2022-11-02T12:11:02.186Z,4.73
2022-11-02T12:13:52.775Z,3.87
2022-11-02T12:16:29.938Z,3.50
2022-11-02T12:19:16.493Z,3.20
2022-11-02T12:21:56.541Z,3.77
2022-11-02T12:24:43.933Z,3.53
2022-11-02T12:27:27.827Z,3.77
2022-11-02T12:30:14.502Z,4.40
2022-11-02T12:33:04.387Z,3.97
2022-11-02T12:35:59.545Z,3.23
2022-11-02T12:38:44.454Z,3.93
2022-11-02T12:41:15.538Z,4.07
2022-11-02T12:43:47.470Z,4.13
2022-11-02T12:46:28.199Z,4.40
2022-11-02T12:49:08.885Z,4.20
2022-11-02T12:51:41.667Z,4.07
2022-11-02T12:54:12.762Z,4.40
2022-11-02T12:56:47.289Z,3.80
2022-11-02T12:59:22.545Z,5.10
2022-11-02T13:01:54.088Z,5.27
2022-11-02T13:04:29.513Z,4.30
2022-11-02T13:07:04.247Z,4.40
2022-11-02T13:09:37.118Z,4.07
2022-11-02T13:12:09.460Z,4.63
2022-11-02T13:14:41.719Z,4.90
2022-11-02T13:17:15.868Z,4.20
2022-11-02T13:19:49.127Z,5.03
2022-11-02T13:22:21.059Z,5.03
2022-11-02T13:24:53.405Z,4.73
2022-11-02T13:27:36.882Z,5.50
2022-11-02T13:30:14.649Z,4.87
2022-11-02T13:32:46.493Z,5.07
2022-11-02T13:35:19.821Z,5.60
2022-11-02T13:37:52.610Z,5.27
2022-11-02T13:40:25.232Z,4.73
2022-11-02T13:43:39.019Z,5.13
2022-11-02T13:46:26.947Z,4.93
2022-11-02T13:49:00.165Z,5.57
2022-11-02T13:51:35.812Z,5.33
2022-11-02T13:54:12.621Z,5.03
2022-11-02T13:56:40.814Z,5.37
2022-11-02T13:59:10.291Z,5.30
2022-11-02T14:01:42.469Z,5.13
2022-11-02T14:04:13.455Z,4.80
2022-11-02T14:06:52.397Z,4.93
2022-11-02T14:09:32.025Z,14.77
2022-11-02T14:12:40.383Z,5.40
2022-11-02T14:15:42.428Z,5.63
2022-11-02T14:18:16.664Z,5.10
2022-11-02T14:20:47.458Z,5.27
2022-11-02T14:23:35.742Z,4.70
2022-11-02T14:26:03.556Z,4.70
2022-11-02T14:28:33.556Z,5.50
2022-11-02T14:31:41.035Z,5.30
2022-11-02T14:34:28.187Z,5.30
2022-11-02T14:37:12.675Z,4.93
2022-11-02T14:39:51.756Z,4.70
2022-11-02T14:42:37.876Z,4.63
2022-11-02T14:45:18.460Z,4.90
2022-11-02T14:47:46.425Z,4.80
2022-11-02T14:50:20.017Z,4.60
2022-11-02T14:53:00.634Z,4.40
2022-11-02T14:55:30.255Z,4.70
2022-11-02T14:58:01.606Z,8.50
2022-11-02T15:00:37.493Z,7.23
2022-11-02T15:03:08.854Z,5.50
2022-11-02T15:05:39.620Z,5.37
2022-11-02T15:08:09.786Z,5.30
2022-11-02T15:10:41.763Z,5.73
2022-11-02T15:13:47.791Z,5.93
2022-11-02T15:16:25.752Z,6.03
2022-11-02T15:18:55.583Z,5.63
2022-11-02T15:21:26.391Z,5.67
2022-11-02T15:24:15.557Z,5.97
2022-11-02T15:26:53.790Z,5.63
2022-11-02T15:29:34.352Z,5.17
2022-11-02T15:32:03.102Z,6.50
2022-11-02T15:34:36.469Z,6.80
2022-11-02T15:37:06.247Z,6.97
2022-11-02T15:39:34.548Z,8.77
2022-11-02T15:42:05.426Z,10.17
2022-11-02T15:45:05.403Z,12.37
2022-11-02T15:47:53.114Z,10.90
2022-11-02T15:50:31.210Z,11.57
2022-11-02T15:53:25.875Z,11.20
2022-11-02T15:56:09.888Z,13.87
2022-11-02T15:58:53.418Z,11.50
2022-11-02T16:01:22.887Z,10.53
2022-11-02T16:03:58.249Z,9.63
2022-11-02T16:06:27.887Z,9.97
2022-11-02T16:08:58.626Z,10.60
2022-11-02T16:11:26.964Z,9.23
2022-11-02T16:14:08.683Z,10.30
2022-11-02T16:16:48.168Z,11.07
2022-11-02T16:19:20.432Z,13.37
2022-11-02T16:21:48.904Z,12.50
2022-11-02T16:24:18.345Z,9.73
2022-11-02T16:26:47.441Z,9.23
2022-11-02T16:29:26.708Z,10.00
2022-11-02T16:31:54.583Z,9.93
2022-11-02T16:34:25.467Z,8.90
2022-11-02T16:36:53.525Z,9.30
2022-11-02T16:39:27.747Z,9.17
2022-11-02T16:41:57.502Z,10.07
2022-11-02T16:44:26.922Z,8.77
2022-11-02T16:46:58.320Z,8.73
2022-11-02T16:49:27.717Z,9.97
2022-11-02T16:51:57.811Z,10.93
2022-11-02T16:54:39.635Z,9.90
2022-11-02T16:57:13.788Z,9.80
2022-11-02T16:59:51.278Z,10.47
2022-11-02T17:02:20.390Z,10.00
2022-11-02T17:04:49.092Z,10.20
2022-11-02T17:07:21.959Z,9.90
2022-11-02T17:09:54.883Z,11.00
2022-11-02T17:12:29.542Z,11.63
2022-11-02T17:14:58.685Z,10.97
2022-11-02T17:17:38.172Z,10.57
2022-11-02T17:20:30.055Z,10.53
2022-11-02T17:23:00.458Z,19.50
2022-11-02T17:25:32.014Z,25.50
2022-11-02T17:28:01.682Z,29.33
2022-11-02T17:30:44.604Z,16.63
2022-11-02T17:33:28.423Z,14.93
2022-11-02T17:35:59.082Z,12.60
2022-11-02T17:38:28.293Z,12.57
2022-11-02T17:41:00.046Z,12.87
2022-11-02T17:43:27.499Z,13.60
2022-11-02T17:45:57.099Z,15.20
2022-11-02T17:48:25.474Z,15.57
2022-11-02T17:50:55.071Z,13.60
2022-11-02T17:53:23.934Z,36.50
2022-11-02T17:55:52.063Z,54.37
2022-11-02T17:58:21.198Z,29.30
2022-11-02T18:00:49.203Z,19.40
2022-11-02T18:03:22.332Z,17.77
2022-11-02T18:05:55.814Z,18.00
2022-11-02T18:08:25.184Z,18.53
2022-11-02T18:10:53.716Z,18.93
2022-11-02T18:13:24.621Z,16.50
2022-11-02T18:15:52.493Z,17.73
2022-11-02T18:18:20.264Z,17.77
2022-11-02T18:20:48.154Z,17.70
2022-11-02T18:23:19.487Z,39.97
2022-11-02T18:25:47.330Z,35.37
2022-11-02T18:28:15.213Z,24.67
2022-11-02T18:30:45.057Z,20.13
2022-11-02T18:33:14.153Z,16.03
2022-11-02T18:35:44.032Z,16.50
2022-11-02T18:38:11.962Z,15.40
2022-11-02T18:40:39.814Z,15.80
2022-11-02T18:43:07.962Z,15.33
2022-11-02T18:45:36.204Z,15.97
2022-11-02T18:48:05.754Z,15.37
2022-11-02T18:50:33.852Z,14.60
2022-11-02T18:53:01.691Z,15.93
2022-11-02T18:55:29.502Z,16.30
2022-11-02T18:57:57.281Z,14.47
2022-11-02T19:00:25.066Z,14.40
2022-11-02T19:02:52.894Z,14.40
2022-11-02T19:05:36.085Z,15.90
2022-11-02T19:08:21.726Z,16.47
2022-11-02T19:10:49.568Z,15.53
2022-11-02T19:13:17.402Z,17.70
2022-11-02T19:15:45.215Z,28.50
2022-11-02T19:18:12.993Z,20.70
2022-11-02T19:20:42.205Z,19.60
2022-11-02T19:23:10.714Z,19.10
2022-11-02T19:25:38.810Z,31.00
2022-11-02T19:28:06.954Z,26.80
2022-11-02T19:30:35.150Z,21.90
2022-11-02T19:33:03.389Z,17.47
2022-11-02T19:35:31.332Z,17.33
2022-11-02T19:38:00.477Z,16.50
2022-11-02T19:40:28.337Z,31.07
2022-11-02T19:42:56.116Z,45.20
2022-11-02T19:45:23.904Z,27.80
2022-11-02T19:47:51.826Z,19.97
2022-11-02T19:50:19.706Z,19.00
2022-11-02T19:52:49.020Z,16.87
2022-11-02T19:55:18.372Z,21.87
2022-11-02T19:57:46.154Z,24.40
2022-11-02T20:00:15.406Z,26.80
2022-11-02T20:02:43.270Z,26.47
2022-11-02T20:05:12.668Z,24.47
2022-11-02T20:07:40.459Z,23.80
2022-11-02T20:10:09.154Z,24.30
2022-11-02T20:12:38.673Z,23.83
2022-11-02T20:15:07.957Z,24.07
2022-11-02T20:17:52.125Z,25.10
2022-11-02T20:20:23.581Z,24.63
2022-11-02T20:22:51.722Z,26.20
2022-11-02T20:25:19.499Z,24.43
2022-11-02T20:27:48.664Z,25.73
2022-11-02T20:30:18.986Z,26.97
2022-11-02T20:32:46.963Z,24.60
2022-11-02T20:35:16.251Z,26.73
2022-11-02T20:37:44.088Z,26.23
2022-11-02T20:40:12.595Z,24.60
2022-11-02T20:42:40.464Z,24.93
2022-11-02T20:45:10.772Z,24.73
2022-11-02T20:47:39.264Z,24.90
2022-11-02T20:50:11.374Z,24.93
2022-11-02T20:52:40.689Z,24.47
2022-11-02T20:55:09.299Z,24.80
2022-11-02T20:57:37.733Z,25.90
2022-11-02T21:00:06.736Z,25.53
2022-11-02T21:02:35.936Z,24.63
2022-11-02T21:05:04.804Z,26.53
2022-11-02T21:07:32.618Z,26.63
2022-11-02T21:10:00.396Z,30.03
2022-11-02T21:12:45.904Z,26.00
2022-11-02T21:15:13.844Z,24.90
2022-11-02T21:17:43.096Z,26.80
2022-11-02T21:20:33.210Z,25.77
2022-11-02T21:23:00.628Z,26.37
2022-11-02T21:25:28.683Z,24.03
2022-11-02T21:27:56.576Z,22.93
2022-11-02T21:30:24.408Z,22.90
2022-11-02T21:32:54.507Z,22.23
2022-11-02T21:35:22.371Z,23.43
2022-11-02T21:37:50.366Z,22.67
2022-11-02T21:40:18.548Z,22.63
2022-11-02T21:42:46.316Z,24.17
2022-11-02T21:45:17.956Z,38.40
2022-11-02T21:47:46.326Z,63.30
2022-11-02T21:50:15.538Z,48.60
2022-11-02T21:52:45.227Z,29.87
2022-11-02T21:55:13.270Z,24.13
2022-11-02T21:57:41.072Z,21.20
2022-11-02T22:00:10.215Z,22.30
2022-11-02T22:02:39.519Z,22.53
2022-11-02T22:05:07.819Z,23.60
2022-11-02T22:07:56.946Z,25.20
2022-11-02T22:10:24.747Z,24.57
2022-11-02T22:13:09.840Z,27.27
2022-11-02T22:15:38.552Z,26.80
2022-11-02T22:18:06.512Z,28.13
2022-11-02T22:20:34.281Z,29.60
2022-11-02T22:23:03.624Z,25.57
2022-11-02T22:25:31.681Z,23.60
2022-11-02T22:27:59.495Z,26.47
2022-11-02T22:30:29.357Z,21.33
2022-11-02T22:32:57.145Z,20.90
2022-11-02T22:35:24.995Z,21.20
2022-11-02T22:38:10.591Z,24.50
2022-11-02T22:40:39.773Z,24.43
2022-11-02T22:43:07.862Z,21.97
2022-11-02T22:45:35.894Z,21.97
2022-11-02T22:48:03.687Z,22.20
2022-11-02T22:50:31.521Z,22.13
2022-11-02T22:52:59.310Z,21.80
2022-11-02T22:55:27.073Z,20.40
2022-11-02T22:57:59.760Z,22.13
2022-11-02T23:00:27.967Z,20.83
2022-11-02T23:02:55.730Z,20.97
2022-11-02T23:05:23.786Z,20.80
2022-11-02T23:07:51.570Z,20.97
2022-11-02T23:10:33.287Z,24.07
2022-11-02T23:13:02.488Z,25.93
2022-11-02T23:15:31.324Z,26.63
2022-11-02T23:17:59.114Z,23.67
2022-11-02T23:20:25.939Z,24.10
2022-11-02T23:23:10.990Z,23.13
2022-11-02T23:25:38.790Z,25.00
2022-11-02T23:28:25.594Z,23.30
2022-11-02T23:31:13.174Z,19.00
2022-11-02T23:33:43.829Z,24.80
2022-11-02T23:36:15.236Z,24.03
2022-11-02T23:39:02.000Z,21.37
2022-11-02T23:41:30.983Z,20.67
2022-11-02T23:44:12.547Z,20.90
2022-11-02T23:46:41.196Z,20.33
2022-11-02T23:49:08.998Z,19.57
2022-11-02T23:51:54.333Z,20.47
2022-11-02T23:54:40.053Z,20.50
2022-11-02T23:57:08.217Z,19.90
2022-11-02T23:59:37.382Z,19.30
